Time;durP1;ratioP1;P1;durP2;ratioP2;P2;SDS_P1;SDS_P2;PMS_P1;PMS_P2;Temp;Humidity;BMP_temperature;BMP_pressure;BME280_temperature;BME280_humidity;BME280_pressure;Samples;Min_cycle;Max_cycle;Signal;HPM_P1;HPM_P2
2023/03/26 00:01:40;;;;;;;2.97;1.30;;;;;;;;;;6041620;23;20027;-78
2023/03/26 00:04:08;;;;;;;2.13;0.90;;;;;;;;;;6065318;23;20027;-78
2023/03/26 00:06:38;;;;;;;4.68;1.40;;;;;;;;;;6066298;23;20109;-78
2023/03/26 00:09:11;;;;;;;2.78;1.15;;;;;;;;;;6066524;23;20350;-78
2023/03/26 00:11:40;;;;;;;2.97;0.98;;;;;;;;;;6064391;23;20105;-78
2023/03/26 00:14:16;;;;;;;5.70;1.38;;;;;;;;;;6088600;23;20518;-78
2023/03/26 00:16:46;;;;;;;2.28;0.90;;;;;;;;;;6064317;23;20023;-78
2023/03/26 00:19:14;;;;;;;3.65;1.20;;;;;;;;;;6064255;23;20029;-77
2023/03/26 00:21:47;;;;;;;6.00;0.93;;;;;;;;;;6063922;23;20385;-77
2023/03/26 00:24:18;;;;;;;4.53;1.80;;;;;;;;;;6065403;23;20030;-78
2023/03/26 00:26:52;;;;;;;3.38;1.08;;;;;;;;;;6041030;23;20023;-77
2023/03/26 00:29:21;;;;;;;5.13;2.08;;;;;;;;;;6065346;23;20019;-78
2023/03/26 00:31:50;;;;;;;2.00;0.95;;;;;;;;;;6065203;23;20023;-78
2023/03/26 00:34:21;;;;;;;5.43;1.50;;;;;;;;;;6065635;23;20027;-78
2023/03/26 00:36:53;;;;;;;2.92;0.90;;;;;;;;;;6065128;23;20022;-78
2023/03/26 00:39:24;;;;;;;2.55;0.80;;;;;;;;;;6067122;23;20019;-78
2023/03/26 00:42:13;;;;;;;4.80;1.10;;;;;;;;;;6067005;23;20362;-78
2023/03/26 00:44:44;;;;;;;4.07;1.63;;;;;;;;;;6067269;23;20121;-77
2023/03/26 00:47:20;;;;;;;5.40;1.30;;;;;;;;;;6067078;23;20023;-77
2023/03/26 00:49:48;;;;;;;3.83;1.15;;;;;;;;;;6067313;23;20377;-77
2023/03/26 00:52:27;;;;;;;2.53;1.15;;;;;;;;;;6067172;23;20023;-78
2023/03/26 00:55:00;;;;;;;5.07;1.20;;;;;;;;;;6067190;23;20034;-78
2023/03/26 00:57:31;;;;;;;3.53;1.35;;;;;;;;;;6068520;23;20123;-78
2023/03/26 01:00:13;;;;;;;2.78;0.98;;;;;;;;;;6070362;23;20023;-80
2023/03/26 01:02:43;;;;;;;4.35;1.00;;;;;;;;;;6093282;23;20037;-80
2023/03/26 01:05:30;;;;;;;2.60;1.17;;;;;;;;;;6068945;23;20023;-79
2023/03/26 01:08:40;;;;;;;3.25;1.10;;;;;;;;;;6092362;23;20097;-79
2023/03/26 01:11:15;;;;;;;5.47;1.10;;;;;;;;;;6092359;23;20022;-78
2023/03/26 01:13:51;;;;;;;3.08;1.08;;;;;;;;;;6067845;23;20030;-77
2023/03/26 01:16:38;;;;;;;4.95;1.10;;;;;;;;;;6066201;23;20027;-76
2023/03/26 01:19:11;;;;;;;3.45;1.27;;;;;;;;;;6064792;23;20019;-77
2023/03/26 01:21:42;;;;;;;3.58;1.10;;;;;;;;;;6067156;23;20027;-77
2023/03/26 01:24:12;;;;;;;2.33;0.90;;;;;;;;;;6068445;23;20105;-76
2023/03/26 01:27:04;;;;;;;2.65;0.90;;;;;;;;;;6067686;23;20026;-77
2023/03/26 01:30:10;;;;;;;3.42;1.45;;;;;;;;;;6067887;23;20078;-77
2023/03/26 01:32:59;;;;;;;4.68;1.30;;;;;;;;;;6090450;23;20031;-77
2023/03/26 01:35:54;;;;;;;5.45;1.88;;;;;;;;;;6090255;23;20027;-76
2023/03/26 01:38:23;;;;;;;3.50;0.80;;;;;;;;;;6062471;23;20117;-79
2023/03/26 01:41:00;;;;;;;2.97;1.50;;;;;;;;;;6090524;23;20686;-79
2023/03/26 01:43:45;;;;;;;5.30;1.00;;;;;;;;;;6065838;23;20026;-79
2023/03/26 01:46:18;;;;;;;5.35;1.17;;;;;;;;;;6066673;23;20023;-79
2023/03/26 01:48:46;;;;;;;5.60;0.90;;;;;;;;;;6066135;23;20018;-78
2023/03/26 01:51:28;;;;;;;6.82;1.10;;;;;;;;;;6065300;23;20019;-79
2023/03/26 01:53:57;;;;;;;2.92;0.90;;;;;;;;;;6065640;23;20027;-80
2023/03/26 01:57:12;;;;;;;6.88;1.20;;;;;;;;;;6066213;23;20026;-81
2023/03/26 02:00:00;;;;;;;1.58;0.82;;;;;;;;;;6020420;23;20015;-81
2023/03/26 02:02:43;;;;;;;5.25;1.02;;;;;;;;;;6066735;23;20030;-81
2023/03/26 02:05:50;;;;;;;;;;;;;;;;;;6072278;23;20030;-81
2023/03/26 02:08:34;;;;;;;1.92;0.90;;;;;;;;;;6049178;23;19992;-80
2023/03/26 02:11:11;;;;;;;6.40;1.13;;;;;;;;;;6067467;23;20357;-79
2023/03/26 02:13:41;;;;;;;3.13;0.75;;;;;;;;;;6083944;23;20027;-79
2023/03/26 02:16:15;;;;;;;4.30;1.13;;;;;;;;;;6084100;23;20074;-80
2023/03/26 02:18:54;;;;;;;6.75;1.65;;;;;;;;;;6088040;23;20033;-79
2023/03/26 02:21:24;;;;;;;6.28;1.75;;;;;;;;;;6090238;23;20061;-77
2023/03/26 02:24:01;;;;;;;4.15;1.08;;;;;;;;;;6088498;23;20117;-76
2023/03/26 02:26:34;;;;;;;6.47;1.00;;;;;;;;;;6089757;23;20039;-77
2023/03/26 02:29:04;;;;;;;4.13;1.00;;;;;;;;;;6088008;23;20046;-77
2023/03/26 02:31:37;;;;;;;4.00;0.93;;;;;;;;;;6065774;23;20101;-78
2023/03/26 02:34:04;;;;;;;;;;;;;;;;;;6111114;23;20037;-79
2023/03/26 02:36:34;;;;;;;5.15;1.23;;;;;;;;;;6087448;23;19961;-77
2023/03/26 02:39:06;;;;;;;3.88;1.02;;;;;;;;;;6088741;23;20022;-78
2023/03/26 02:41:34;;;;;;;5.03;1.70;;;;;;;;;;6088068;23;20079;-77
2023/03/26 02:44:05;;;;;;;3.28;1.20;;;;;;;;;;6064619;23;20010;-79
2023/03/26 02:46:33;;;;;;;1.52;0.90;;;;;;;;;;6088660;23;20025;-78
2023/03/26 02:49:07;;;;;;;6.60;1.70;;;;;;;;;;6088565;23;20022;-79
2023/03/26 02:51:36;;;;;;;4.10;0.95;;;;;;;;;;6088932;23;20138;-78
2023/03/26 02:54:05;;;;;;;2.80;0.90;;;;;;;;;;6065525;23;20049;-78
2023/03/26 02:56:42;;;;;;;5.60;1.33;;;;;;;;;;6089999;23;20296;-77
2023/03/26 02:59:13;;;;;;;3.20;1.15;;;;;;;;;;6088999;23;20022;-78
2023/03/26 03:01:45;;;;;;;2.22;0.98;;;;;;;;;;6088934;23;20048;-78
2023/03/26 03:04:16;;;;;;;4.72;0.90;;;;;;;;;;6085417;23;20026;-79
2023/03/26 03:06:51;;;;;;;7.00;1.00;;;;;;;;;;6071333;23;20050;-79
2023/03/26 03:09:30;;;;;;;3.22;1.05;;;;;;;;;;6069865;23;20239;-79
2023/03/26 03:12:06;;;;;;;4.10;0.90;;;;;;;;;;6072868;23;20018;-76
2023/03/26 03:14:39;;;;;;;6.25;1.50;;;;;;;;;;6087483;23;20031;-78
2023/03/26 03:17:07;;;;;;;2.80;0.70;;;;;;;;;;6047276;23;20544;-78
2023/03/26 03:19:38;;;;;;;4.32;0.90;;;;;;;;;;6068732;23;20022;-79
2023/03/26 03:22:06;;;;;;;4.50;0.88;;;;;;;;;;6067966;23;20045;-79
2023/03/26 03:24:37;;;;;;;5.22;1.13;;;;;;;;;;6045331;23;20023;-78
2023/03/26 03:27:07;;;;;;;5.28;0.90;;;;;;;;;;6068961;23;20082;-79
2023/03/26 03:29:38;;;;;;;3.55;0.80;;;;;;;;;;6069014;23;20015;-79
2023/03/26 03:32:06;;;;;;;3.53;1.00;;;;;;;;;;6068476;23;20022;-79
2023/03/26 03:34:37;;;;;;;3.28;1.00;;;;;;;;;;6069357;23;20078;-79
2023/03/26 03:37:10;;;;;;;2.85;0.90;;;;;;;;;;6047004;23;20449;-79
2023/03/26 03:39:43;;;;;;;5.35;1.23;;;;;;;;;;6070056;23;20018;-79
2023/03/26 03:42:13;;;;;;;5.57;1.30;;;;;;;;;;6046874;23;20034;-79
2023/03/26 03:44:50;;;;;;;8.82;1.83;;;;;;;;;;6093092;23;20025;-79
2023/03/26 03:47:24;;;;;;;5.72;1.00;;;;;;;;;;6068527;23;20027;-79
2023/03/26 03:49:55;;;;;;;5.40;1.33;;;;;;;;;;6068248;23;20023;-78
2023/03/26 03:52:26;;;;;;;6.25;1.45;;;;;;;;;;6067497;23;20038;-78
2023/03/26 03:54:56;;;;;;;3.72;1.00;;;;;;;;;;6068077;23;20465;-78
2023/03/26 03:57:27;;;;;;;6.78;1.52;;;;;;;;;;6067143;23;20105;-79
2023/03/26 03:59:57;;;;;;;3.25;0.80;;;;;;;;;;6066758;23;20079;-78
2023/03/26 04:02:33;;;;;;;5.60;1.10;;;;;;;;;;6067865;23;20488;-77
2023/03/26 04:05:02;;;;;;;6.25;1.88;;;;;;;;;;6067893;23;20030;-78
2023/03/26 04:07:34;;;;;;;5.28;1.30;;;;;;;;;;6078721;23;20457;-75
2023/03/26 04:10:13;;;;;;;7.45;1.60;;;;;;;;;;6079410;23;20015;-77
2023/03/26 04:12:41;;;;;;;7.45;1.50;;;;;;;;;;6065669;23;20098;-78
2023/03/26 04:15:12;;;;;;;5.60;1.23;;;;;;;;;;6066307;23;20469;-78
2023/03/26 04:17:44;;;;;;;7.60;1.70;;;;;;;;;;6042459;23;20034;-77
2023/03/26 04:20:14;;;;;;;8.07;1.17;;;;;;;;;;6066275;23;20029;-78
2023/03/26 04:22:46;;;;;;;5.45;1.55;;;;;;;;;;6066189;23;20148;-78
2023/03/26 04:25:14;;;;;;;4.30;1.23;;;;;;;;;;6066229;23;20022;-78
2023/03/26 04:27:42;;;;;;;6.30;1.17;;;;;;;;;;6066471;23;20059;-78
2023/03/26 04:30:15;;;;;;;5.25;1.33;;;;;;;;;;6066396;23;20019;-78
2023/03/26 04:32:47;;;;;;;4.75;1.10;;;;;;;;;;6066475;23;20035;-78
2023/03/26 04:35:18;;;;;;;3.58;1.52;;;;;;;;;;6066371;23;20026;-78
2023/03/26 04:37:46;;;;;;;5.03;1.50;;;;;;;;;;6066664;23;20030;-79
2023/03/26 04:40:21;;;;;;;4.90;1.48;;;;;;;;;;6066889;23;20331;-78
2023/03/26 04:42:53;;;;;;;4.85;1.48;;;;;;;;;;6066377;23;20027;-77
2023/03/26 04:45:29;;;;;;;5.50;1.33;;;;;;;;;;6066159;23;20470;-77
2023/03/26 04:47:59;;;;;;;9.98;1.80;;;;;;;;;;6042885;23;20037;-79
2023/03/26 04:50:27;;;;;;;6.95;1.27;;;;;;;;;;6066705;23;20465;-78
2023/03/26 04:52:56;;;;;;;4.47;1.30;;;;;;;;;;6066263;23;20461;-78
2023/03/26 04:55:49;;;;;;;5.40;1.08;;;;;;;;;;6066121;23;20059;-79
2023/03/26 04:58:31;;;;;;;7.95;1.60;;;;;;;;;;6065636;23;20053;-79
2023/03/26 05:01:04;;;;;;;5.13;1.30;;;;;;;;;;6064832;23;20446;-79
2023/03/26 05:03:40;;;;;;;3.65;1.23;;;;;;;;;;6065141;23;20098;-79
2023/03/26 05:06:09;;;;;;;3.72;1.10;;;;;;;;;;6066516;23;20027;-79
2023/03/26 05:08:37;;;;;;;3.42;1.08;;;;;;;;;;6067276;23;20039;-79
2023/03/26 05:11:10;;;;;;;4.85;1.77;;;;;;;;;;6065643;23;20485;-77
2023/03/26 05:13:43;;;;;;;6.70;1.77;;;;;;;;;;6066348;23;20466;-80
2023/03/26 05:16:11;;;;;;;7.57;1.80;;;;;;;;;;6043100;23;20027;-79
2023/03/26 05:18:42;;;;;;;5.85;1.77;;;;;;;;;;6066838;23;20037;-78
2023/03/26 05:21:13;;;;;;;4.00;1.00;;;;;;;;;;6066357;23;20019;-78
2023/03/26 05:23:45;;;;;;;5.85;1.63;;;;;;;;;;6047019;23;20507;-78
2023/03/26 05:26:15;;;;;;;6.15;1.70;;;;;;;;;;6069615;23;20026;-79
2023/03/26 05:28:43;;;;;;;6.13;1.40;;;;;;;;;;6076227;23;20102;-79
2023/03/26 05:31:22;;;;;;;6.40;1.60;;;;;;;;;;6072323;23;20129;-78
2023/03/26 05:33:53;;;;;;;3.92;1.30;;;;;;;;;;6046322;23;20055;-80
2023/03/26 05:36:27;;;;;;;8.55;1.45;;;;;;;;;;6071139;23;20138;-79
2023/03/26 05:38:56;;;;;;;12.30;1.40;;;;;;;;;;6069745;23;20098;-79
2023/03/26 05:41:24;;;;;;;5.55;1.42;;;;;;;;;;6076922;23;20106;-79
2023/03/26 05:43:52;;;;;;;4.57;1.25;;;;;;;;;;6072659;23;20091;-78
2023/03/26 05:46:20;;;;;;;5.47;1.33;;;;;;;;;;6073611;23;20034;-77
2023/03/26 05:48:50;;;;;;;3.42;1.15;;;;;;;;;;6071336;23;20030;-79
2023/03/26 05:51:30;;;;;;;4.57;1.40;;;;;;;;;;6071035;23;20094;-79
2023/03/26 05:54:02;;;;;;;9.30;2.30;;;;;;;;;;6068276;23;20078;-79
2023/03/26 05:56:33;;;;;;;3.42;1.52;;;;;;;;;;6068720;23;20082;-79
2023/03/26 05:59:04;;;;;;;5.47;1.55;;;;;;;;;;6044911;23;20023;-80
2023/03/26 06:01:34;;;;;;;8.00;3.00;;;;;;;;;;6068153;23;20027;-77
2023/03/26 06:04:04;;;;;;;3.85;1.80;;;;;;;;;;6068147;23;20073;-78
2023/03/26 06:06:41;;;;;;;5.60;1.90;;;;;;;;;;6068275;23;20070;-78
2023/03/26 06:09:15;;;;;;;5.78;1.42;;;;;;;;;;6047145;23;20406;-77
2023/03/26 06:11:46;;;;;;;8.40;1.80;;;;;;;;;;6067504;23;20034;-77
2023/03/26 06:14:17;;;;;;;4.80;1.83;;;;;;;;;;6068683;23;20027;-77
2023/03/26 06:16:56;;;;;;;2.58;1.02;;;;;;;;;;6067845;23;20101;-77
2023/03/26 06:19:31;;;;;;;2.78;1.13;;;;;;;;;;6067283;23;20034;-78
2023/03/26 06:21:58;;;;;;;4.22;1.20;;;;;;;;;;6066695;23;20022;-77
2023/03/26 06:24:28;;;;;;;4.50;1.58;;;;;;;;;;6091039;23;20027;-78
2023/03/26 06:27:06;;;;;;;5.82;1.30;;;;;;;;;;6068089;23;20025;-78
2023/03/26 06:29:34;;;;;;;5.10;1.35;;;;;;;;;;6047793;23;20035;-80
2023/03/26 06:32:02;;;;;;;4.28;1.00;;;;;;;;;;6047559;23;20110;-80
2023/03/26 06:34:47;;;;;;;8.73;1.65;;;;;;;;;;6070961;23;20112;-80
2023/03/26 06:37:16;;;;;;;2.28;1.17;;;;;;;;;;6071458;23;20041;-80
2023/03/26 06:39:44;;;;;;;7.53;1.50;;;;;;;;;;6071373;23;20070;-80
2023/03/26 06:42:13;;;;;;;3.40;1.23;;;;;;;;;;6071071;23;20063;-80
2023/03/26 06:44:46;;;;;;;3.67;1.10;;;;;;;;;;6072384;23;20033;-80
2023/03/26 06:47:16;;;;;;;5.03;1.65;;;;;;;;;;6047302;23;20022;-79
2023/03/26 06:49:46;;;;;;;5.10;1.40;;;;;;;;;;6069949;23;20019;-78
2023/03/26 06:52:14;;;;;;;5.95;1.35;;;;;;;;;;6069451;23;20027;-79
2023/03/26 06:54:42;;;;;;;3.17;1.35;;;;;;;;;;6093625;23;20031;-79
2023/03/26 06:57:11;;;;;;;5.35;1.20;;;;;;;;;;6070020;23;20033;-79
2023/03/26 06:59:39;;;;;;;8.68;2.20;;;;;;;;;;6069797;23;20473;-79
2023/03/26 07:02:10;;;;;;;6.57;1.23;;;;;;;;;;6046784;23;20026;-80
2023/03/26 07:04:38;;;;;;;7.07;1.45;;;;;;;;;;6070186;23;20019;-79
2023/03/26 07:07:10;;;;;;;4.90;1.52;;;;;;;;;;6071589;23;20086;-84
2023/03/26 07:09:39;;;;;;;3.15;1.30;;;;;;;;;;6072719;23;20026;-79
2023/03/26 07:12:07;;;;;;;8.80;2.90;;;;;;;;;;6068900;23;20035;-79
2023/03/26 07:14:38;;;;;;;5.85;2.47;;;;;;;;;;6070087;23;20331;-78
2023/03/26 07:17:09;;;;;;;5.22;1.40;;;;;;;;;;6069544;23;20027;-79
2023/03/26 07:19:37;;;;;;;6.38;1.10;;;;;;;;;;6068384;23;20034;-81
2023/03/26 07:22:06;;;;;;;4.43;1.10;;;;;;;;;;6021121;23;20033;-80
2023/03/26 07:24:35;;;;;;;4.80;1.27;;;;;;;;;;6045663;23;20500;-81
2023/03/26 07:27:24;;;;;;;6.13;1.42;;;;;;;;;;6094529;23;20470;-81
2023/03/26 07:30:00;;;;;;;4.07;1.00;;;;;;;;;;6069853;23;20026;-79
2023/03/26 07:32:37;;;;;;;4.22;1.30;;;;;;;;;;6071787;23;20026;-80
2023/03/26 07:35:10;;;;;;;4.53;1.00;;;;;;;;;;6047517;23;20023;-80
2023/03/26 07:37:41;;;;;;;4.87;1.10;;;;;;;;;;6097073;23;20057;-79
2023/03/26 07:40:28;;;;;;;4.32;0.90;;;;;;;;;;6101076;23;20026;-80
2023/03/26 07:43:09;;;;;;;5.22;1.17;;;;;;;;;;6070233;23;20399;-79
2023/03/26 07:45:40;;;;;;;2.88;0.90;;;;;;;;;;6094135;23;20037;-80
2023/03/26 07:48:20;;;;;;;3.35;1.10;;;;;;;;;;6075662;23;20023;-79
2023/03/26 07:50:49;;;;;;;4.32;1.40;;;;;;;;;;6068299;23;20023;-79
2023/03/26 07:53:19;;;;;;;3.83;1.20;;;;;;;;;;6070561;23;20026;-79
2023/03/26 07:55:53;;;;;;;3.72;0.90;;;;;;;;;;6070488;23;20071;-79
2023/03/26 07:58:37;;;;;;;4.28;1.20;;;;;;;;;;6096834;23;20065;-80
2023/03/26 08:01:23;;;;;;;7.13;1.17;;;;;;;;;;6094649;23;20038;-80
2023/03/26 08:04:01;;;;;;;5.68;1.17;;;;;;;;;;6068746;23;20649;-80
2023/03/26 08:07:21;;;;;;;4.78;1.23;;;;;;;;;;6069090;23;20557;-80
2023/03/26 08:10:05;;;;;;;6.30;1.27;;;;;;;;;;6068466;23;20027;-80
2023/03/26 08:12:52;;;;;;;7.53;2.17;;;;;;;;;;6093405;23;20027;-79
2023/03/26 08:15:39;;;;;;;7.95;1.63;;;;;;;;;;6093664;23;20018;-79
2023/03/26 08:18:18;;;;;;;6.57;2.03;;;;;;;;;;6090532;23;20039;-78
2023/03/26 08:20:53;;;;;;;7.30;1.83;;;;;;;;;;6063771;23;20034;-74
2023/03/26 08:23:51;;;;;;;5.35;1.65;;;;;;;;;;6063616;23;20019;-75
2023/03/26 08:26:57;;;;;;;5.47;1.92;;;;;;;;;;6057415;23;20027;-78
2023/03/26 08:29:33;;;;;;;8.90;2.33;;;;;;;;;;6064896;23;20023;-78
2023/03/26 08:32:03;;;;;;;11.25;2.85;;;;;;;;;;6088322;23;20078;-77
2023/03/26 08:34:36;;;;;;;7.40;1.88;;;;;;;;;;6068557;23;20034;-78
2023/03/26 08:37:03;;;;;;;6.30;1.90;;;;;;;;;;6068763;23;20030;-81
2023/03/26 08:39:31;;;;;;;8.13;2.72;;;;;;;;;;6069395;23;20488;-82
2023/03/26 08:42:00;;;;;;;6.65;2.13;;;;;;;;;;6068576;23;20033;-81
2023/03/26 08:44:48;;;;;;;6.28;1.38;;;;;;;;;;6093198;23;20030;-80
2023/03/26 08:47:38;;;;;;;8.35;2.30;;;;;;;;;;6091799;23;20030;-81
2023/03/26 08:50:27;;;;;;;4.68;1.48;;;;;;;;;;6066897;23;20019;-80
2023/03/26 08:53:10;;;;;;;6.97;1.70;;;;;;;;;;6092347;23;20027;-80
2023/03/26 08:55:42;;;;;;;8.00;1.88;;;;;;;;;;6092039;23;20461;-81
2023/03/26 08:58:52;;;;;;;5.95;1.40;;;;;;;;;;6091309;23;20022;-81
2023/03/26 09:01:41;;;;;;;7.97;1.90;;;;;;;;;;6062660;23;20039;-81
2023/03/26 09:04:38;;;;;;;8.30;2.15;;;;;;;;;;6069166;23;20540;-81
2023/03/26 09:07:33;;;;;;;5.25;1.52;;;;;;;;;;6065625;23;20031;-80
2023/03/26 09:10:32;;;;;;;5.65;1.70;;;;;;;;;;6092512;23;20031;-77
2023/03/26 09:13:35;;;;;;;9.50;1.60;;;;;;;;;;6093364;23;20022;-82
2023/03/26 09:16:07;;;;;;;3.60;1.40;;;;;;;;;;6068908;23;20033;-79
2023/03/26 09:18:54;;;;;;;5.82;2.20;;;;;;;;;;6069701;23;20458;-83
2023/03/26 09:21:38;;;;;;;5.45;2.25;;;;;;;;;;6092417;23;20025;-80
2023/03/26 09:24:23;;;;;;;9.05;4.30;;;;;;;;;;6067677;23;20077;-80
2023/03/26 09:27:19;;;;;;;6.15;2.20;;;;;;;;;;6069456;23;20110;-79
2023/03/26 09:30:24;;;;;;;5.93;1.95;;;;;;;;;;6065224;23;20026;-80
2023/03/26 09:33:12;;;;;;;8.43;1.98;;;;;;;;;;6093384;23;20034;-82
2023/03/26 09:36:06;;;;;;;5.05;1.73;;;;;;;;;;6068642;23;20051;-81
2023/03/26 09:38:45;;;;;;;3.05;1.45;;;;;;;;;;6068051;23;20361;-82
2023/03/26 09:41:16;;;;;;;4.00;1.50;;;;;;;;;;6070484;23;20034;-81
2023/03/26 09:44:23;;;;;;;6.32;2.33;;;;;;;;;;6095031;23;20023;-83
2023/03/26 09:47:18;;;;;;;7.43;2.10;;;;;;;;;;6093176;23;20033;-83
2023/03/26 09:50:32;;;;;;;6.53;1.85;;;;;;;;;;6092842;23;20051;-79
2023/03/26 09:53:22;;;;;;;5.05;1.80;;;;;;;;;;6031756;23;20054;-80
2023/03/26 09:56:34;;;;;;;4.65;1.55;;;;;;;;;;6069661;23;20027;-81
2023/03/26 09:59:08;;;;;;;2.85;1.35;;;;;;;;;;6066637;23;20019;-80
2023/03/26 10:01:44;;;;;;;4.18;1.73;;;;;;;;;;6068498;23;20527;-82
2023/03/26 10:04:28;;;;;;;3.95;2.22;;;;;;;;;;6093467;23;20660;-80
2023/03/26 10:07:23;;;;;;;4.88;2.00;;;;;;;;;;6092640;23;20034;-79
2023/03/26 10:09:56;;;;;;;3.08;1.60;;;;;;;;;;6062442;23;20102;-81
2023/03/26 10:12:40;;;;;;;2.88;1.45;;;;;;;;;;6063034;23;20018;-81
2023/03/26 10:15:57;;;;;;;1.55;1.17;;;;;;;;;;6067430;23;20027;-82
2023/03/26 10:18:56;;;;;;;2.85;1.30;;;;;;;;;;5986996;23;20055;-81
2023/03/26 10:21:37;;;;;;;1.98;1.10;;;;;;;;;;6070087;23;20026;-81
2023/03/26 10:24:27;;;;;;;2.45;1.15;;;;;;;;;;6093245;23;20022;-81
2023/03/26 10:27:14;;;;;;;3.75;1.15;;;;;;;;;;6093574;23;20106;-81
2023/03/26 10:30:04;;;;;;;1.90;0.70;;;;;;;;;;6068166;23;20027;-79
2023/03/26 10:32:53;;;;;;;1.73;0.98;;;;;;;;;;6092496;23;20335;-78
2023/03/26 10:35:55;;;;;;;1.75;1.10;;;;;;;;;;6093871;23;20031;-80
2023/03/26 10:38:37;;;;;;;2.72;1.20;;;;;;;;;;6035007;23;20532;-79
2023/03/26 10:41:35;;;;;;;2.72;0.80;;;;;;;;;;6091551;23;20027;-77
2023/03/26 10:44:21;;;;;;;1.80;0.65;;;;;;;;;;6092606;23;20037;-80
2023/03/26 10:47:19;;;;;;;3.58;0.82;;;;;;;;;;6092130;23;20030;-80
2023/03/26 10:50:10;;;;;;;3.25;0.60;;;;;;;;;;6093952;23;20073;-78
2023/03/26 10:52:56;;;;;;;1.73;0.88;;;;;;;;;;6091529;23;20018;-77
2023/03/26 10:55:34;;;;;;;3.42;1.33;;;;;;;;;;6090622;23;20093;-79
2023/03/26 10:58:28;;;;;;;3.55;0.70;;;;;;;;;;6066115;23;20022;-79
2023/03/26 11:01:24;;;;;;;2.05;0.65;;;;;;;;;;6048444;23;20030;-80
2023/03/26 11:03:55;;;;;;;1.35;0.43;;;;;;;;;;6090892;23;20050;-80
2023/03/26 11:06:34;;;;;;;1.90;0.52;;;;;;;;;;6091300;23;20027;-79
2023/03/26 11:09:11;;;;;;;0.77;0.52;;;;;;;;;;6067511;23;20027;-80
2023/03/26 11:12:13;;;;;;;2.28;0.50;;;;;;;;;;6064461;23;20472;-80
2023/03/26 11:15:09;;;;;;;2.65;0.60;;;;;;;;;;6081312;23;20532;-79
2023/03/26 11:17:38;;;;;;;1.23;0.65;;;;;;;;;;6063254;23;20034;-80
2023/03/26 11:20:38;;;;;;;1.42;0.50;;;;;;;;;;6041888;23;20031;-79
2023/03/26 11:23:41;;;;;;;2.88;0.80;;;;;;;;;;6063860;23;20031;-80
2023/03/26 11:26:48;;;;;;;2.30;0.65;;;;;;;;;;6062571;23;20046;-78
2023/03/26 11:29:44;;;;;;;3.47;0.70;;;;;;;;;;5986491;23;20046;-79
2023/03/26 11:32:17;;;;;;;1.67;0.57;;;;;;;;;;6019253;23;20034;-79
2023/03/26 11:34:57;;;;;;;0.90;0.35;;;;;;;;;;6066201;23;20461;-78
2023/03/26 11:37:38;;;;;;;0.70;0.50;;;;;;;;;;6089456;23;20042;-78
2023/03/26 11:40:23;;;;;;;2.13;0.60;;;;;;;;;;6066324;23;20046;-80
2023/03/26 11:42:59;;;;;;;1.27;0.60;;;;;;;;;;6065927;23;20050;-79
2023/03/26 11:45:35;;;;;;;1.52;0.70;;;;;;;;;;6064925;23;20045;-77
2023/03/26 11:48:33;;;;;;;1.77;0.40;;;;;;;;;;6062798;23;20030;-76
2023/03/26 11:51:47;;;;;;;0.77;0.65;;;;;;;;;;6059305;23;20019;-76
2023/03/26 11:54:24;;;;;;;2.58;0.65;;;;;;;;;;6041672;23;20458;-79
2023/03/26 11:57:09;;;;;;;1.83;0.82;;;;;;;;;;6066296;23;20041;-78
2023/03/26 12:00:09;;;;;;;1.30;0.60;;;;;;;;;;6067243;23;20089;-78
2023/03/26 12:02:38;;;;;;;1.65;0.77;;;;;;;;;;6063814;23;20026;-77
2023/03/26 12:05:21;;;;;;;2.13;0.57;;;;;;;;;;6065767;23;20085;-78
2023/03/26 12:07:55;;;;;;;1.30;0.50;;;;;;;;;;6066813;23;20465;-78
2023/03/26 12:10:37;;;;;;;1.30;0.60;;;;;;;;;;6090014;23;20027;-78
2023/03/26 12:13:29;;;;;;;0.82;0.47;;;;;;;;;;6065961;23;20022;-78
2023/03/26 12:16:05;;;;;;;3.17;0.80;;;;;;;;;;6090127;23;20418;-78
2023/03/26 12:18:37;;;;;;;1.88;0.73;;;;;;;;;;6065522;23;20078;-78
2023/03/26 12:21:14;;;;;;;1.42;0.70;;;;;;;;;;6066240;23;20023;-76
2023/03/26 12:23:59;;;;;;;4.95;0.93;;;;;;;;;;6065104;23;20802;-77
2023/03/26 12:26:44;;;;;;;3.92;1.05;;;;;;;;;;6042971;23;20110;-77
2023/03/26 12:29:16;;;;;;;3.63;0.60;;;;;;;;;;6086492;23;20457;-77
2023/03/26 12:31:56;;;;;;;3.20;0.80;;;;;;;;;;6063365;23;20436;-77
2023/03/26 12:34:33;;;;;;;3.80;0.60;;;;;;;;;;6063712;23;20027;-78
2023/03/26 12:37:04;;;;;;;2.47;0.50;;;;;;;;;;6064021;23;20102;-78
2023/03/26 12:39:44;;;;;;;1.73;0.68;;;;;;;;;;6064242;23;20034;-77
2023/03/26 12:42:36;;;;;;;0.95;0.50;;;;;;;;;;6063273;23;20544;-77
2023/03/26 12:45:37;;;;;;;1.90;0.38;;;;;;;;;;6063059;23;20034;-77
2023/03/26 12:48:05;;;;;;;2.83;1.10;;;;;;;;;;6062436;23;20022;-78
2023/03/26 12:51:04;;;;;;;1.88;0.90;;;;;;;;;;6064556;23;20050;-77
2023/03/26 12:54:08;;;;;;;1.80;0.80;;;;;;;;;;6061786;23;20054;-77
2023/03/26 12:56:46;;;;;;;1.45;0.77;;;;;;;;;;6063863;23;20592;-78
2023/03/26 12:59:35;;;;;;;1.67;0.70;;;;;;;;;;6065471;23;20054;-77
2023/03/26 13:02:28;;;;;;;4.57;0.70;;;;;;;;;;6102369;23;20023;-74
2023/03/26 13:05:05;;;;;;;;;;;;;;;;;;6080448;23;20023;-75
2023/03/26 13:07:55;;;;;;;3.70;1.08;;;;;;;;;;6066635;23;19921;-77
2023/03/26 13:10:36;;;;;;;3.13;0.88;;;;;;;;;;6087771;23;20465;-76
2023/03/26 13:13:23;;;;;;;3.00;0.93;;;;;;;;;;6087945;23;20021;-75
2023/03/26 13:16:02;;;;;;;3.55;0.95;;;;;;;;;;6088332;23;20086;-77
2023/03/26 13:18:48;;;;;;;2.95;0.80;;;;;;;;;;6063751;23;20061;-77
2023/03/26 13:21:24;;;;;;;1.30;0.90;;;;;;;;;;6087972;23;20061;-77
2023/03/26 13:24:07;;;;;;;1.83;0.63;;;;;;;;;;6063654;23;20018;-77
2023/03/26 13:27:03;;;;;;;2.38;1.10;;;;;;;;;;6064484;23;20019;-78
2023/03/26 13:29:56;;;;;;;3.75;0.98;;;;;;;;;;6089703;23;20026;-78
2023/03/26 13:32:56;;;;;;;5.45;1.77;;;;;;;;;;6061461;23;20023;-78
2023/03/26 13:35:37;;;;;;;6.82;2.47;;;;;;;;;;6064304;23;20031;-80
2023/03/26 13:38:21;;;;;;;2.15;1.20;;;;;;;;;;6066119;23;20026;-78
2023/03/26 13:41:00;;;;;;;1.38;0.60;;;;;;;;;;6062507;23;20045;-77
2023/03/26 13:43:33;;;;;;;2.88;0.98;;;;;;;;;;6087623;23;20023;-77
2023/03/26 13:46:16;;;;;;;1.73;0.80;;;;;;;;;;6065832;23;20027;-78
2023/03/26 13:49:06;;;;;;;2.42;0.90;;;;;;;;;;6066498;23;20022;-79
2023/03/26 13:52:07;;;;;;;2.75;0.60;;;;;;;;;;6065450;23;20022;-81
2023/03/26 13:55:20;;;;;;;3.03;0.80;;;;;;;;;;6046372;23;20027;-80
2023/03/26 13:58:01;;;;;;;3.08;0.90;;;;;;;;;;6069250;23;20026;-78
2023/03/26 14:00:59;;;;;;;2.47;0.80;;;;;;;;;;6066276;23;20710;-78
2023/03/26 14:03:47;;;;;;;1.63;0.60;;;;;;;;;;6092858;23;20094;-77
2023/03/26 14:06:30;;;;;;;4.00;0.77;;;;;;;;;;6067223;23;20034;-80
2023/03/26 14:09:27;;;;;;;4.25;1.02;;;;;;;;;;6091602;23;20106;-80
2023/03/26 14:12:26;;;;;;;2.10;0.82;;;;;;;;;;6065008;23;20050;-80
2023/03/26 14:15:05;;;;;;;3.60;0.80;;;;;;;;;;6064691;23;20110;-80
2023/03/26 14:17:49;;;;;;;4.20;1.10;;;;;;;;;;6068001;23;20045;-79
2023/03/26 14:20:49;;;;;;;2.70;1.15;;;;;;;;;;6068798;23;20082;-79
2023/03/26 14:23:36;;;;;;;2.13;0.70;;;;;;;;;;6069402;23;20030;-79
2023/03/26 14:26:25;;;;;;;4.28;1.02;;;;;;;;;;6092189;23;20125;-78
2023/03/26 14:29:11;;;;;;;2.33;0.68;;;;;;;;;;6066035;23;20414;-75
2023/03/26 14:32:02;;;;;;;4.07;0.80;;;;;;;;;;6090719;23;20022;-78
2023/03/26 14:34:44;;;;;;;3.60;0.90;;;;;;;;;;6063651;23;20077;-79
2023/03/26 14:37:23;;;;;;;2.33;1.10;;;;;;;;;;6063733;23;20086;-77
2023/03/26 14:40:22;;;;;;;1.95;0.68;;;;;;;;;;6086635;23;20031;-77
2023/03/26 14:42:53;;;;;;;2.75;0.82;;;;;;;;;;6059771;23;20030;-78
2023/03/26 14:45:25;;;;;;;0.30;0.30;;;;;;;;;;6087577;23;20030;-78
2023/03/26 14:48:15;;;;;;;2.45;1.20;;;;;;;;;;6087905;23;20031;-77
2023/03/26 14:51:06;;;;;;;1.48;0.80;;;;;;;;;;6064515;23;20030;-78
2023/03/26 14:53:36;;;;;;;1.38;0.80;;;;;;;;;;6059127;23;20025;-78
2023/03/26 14:56:57;;;;;;;1.65;0.70;;;;;;;;;;6064303;23;20027;-78
2023/03/26 14:59:43;;;;;;;1.52;0.57;;;;;;;;;;5994814;23;20056;-79
2023/03/26 15:02:38;;;;;;;1.92;0.50;;;;;;;;;;6026581;23;20123;-78
2023/03/26 15:05:34;;;;;;;2.22;0.93;;;;;;;;;;6079223;23;20030;-79
2023/03/26 15:08:33;;;;;;;3.55;1.70;;;;;;;;;;6064721;23;20422;-78
2023/03/26 15:11:25;;;;;;;4.03;0.80;;;;;;;;;;6070829;23;20086;-78
2023/03/26 15:14:05;;;;;;;1.75;0.43;;;;;;;;;;6088949;23;20058;-78
2023/03/26 15:16:46;;;;;;;1.77;0.68;;;;;;;;;;6064085;23;20029;-78
2023/03/26 15:19:50;;;;;;;0.80;0.50;;;;;;;;;;6091133;23;20030;-79
2023/03/26 15:23:06;;;;;;;1.17;0.50;;;;;;;;;;6104659;23;20023;-79
2023/03/26 15:26:26;;;;;;;2.10;0.47;;;;;;;;;;6110097;23;20418;-79
2023/03/26 15:29:23;;;;;;;1.17;0.50;;;;;;;;;;6023683;23;20022;-79
2023/03/26 15:32:13;;;;;;;2.00;0.50;;;;;;;;;;6108622;23;20027;-77
2023/03/26 15:35:19;;;;;;;1.13;0.32;;;;;;;;;;6106781;23;20054;-78
2023/03/26 15:38:25;;;;;;;0.50;0.30;;;;;;;;;;6106894;23;20026;-77
2023/03/26 15:41:33;;;;;;;1.17;0.25;;;;;;;;;;6107742;23;20645;-77
2023/03/26 15:44:08;;;;;;;1.52;0.60;;;;;;;;;;6108807;23;20508;-79
2023/03/26 15:47:17;;;;;;;0.75;0.50;;;;;;;;;;6085383;23;20027;-79
2023/03/26 15:50:07;;;;;;;1.73;0.50;;;;;;;;;;6072634;23;20063;-77
2023/03/26 15:53:05;;;;;;;0.60;0.40;;;;;;;;;;6109910;23;20015;-78
2023/03/26 15:55:59;;;;;;;2.15;0.50;;;;;;;;;;6080417;23;20026;-77
2023/03/26 15:58:37;;;;;;;1.33;0.80;;;;;;;;;;6085952;23;20038;-78
2023/03/26 16:01:36;;;;;;;0.47;0.40;;;;;;;;;;6085412;23;20034;-79
2023/03/26 16:04:28;;;;;;;0.68;0.60;;;;;;;;;;6100575;23;20027;-78